Dodgeville, WI (53533)

9:06 AM CST on December 05, 2016 (GMT -0600)
Iowa County | | Change Station
Active Advisory: Dense Fog Advisory Active Notice: Record Report, Local Storm Report

Elev 1168 ft 42.89 °N, 90.23 °W | Updated 11 minutes ago

Fog
Fog
32 °F
Feels Like 26 °F
N
6
Wind Variable Wind from South

Today
High -- | Low -- °F
--% Chance of Precip.
Yesterday
High -- | Low -- °F
Precip. -- in
Pressure 29.92 in
Visibility 0.2 miles
Clouds Overcast 100 ft
Windchill 26 °F
Dew Point 32 °F
Humidity 100%
Rainfall 0.00 in
Snow Depth Not available.
7:16 AM 4:26 PM
Waxing Crescent, 32% visible
METAR KMRJ 051455Z AUTO 17005KT M1/4SM FG OVC001 00/00 A2992 RMK AO2
Pressure 29.92 in
Visibility 0.2 miles
Clouds Overcast 100 ft
Windchill 26 °F
Dew Point 32 °F
Humidity 100%
Rainfall 0.00 in
Snow Depth Not available.
7:16 AM 4:26 PM
Waxing Crescent, 32% visible
METAR KMRJ 051455Z AUTO 17005KT M1/4SM FG OVC001 00/00 A2992 RMK AO2

10-Day Weather Forecast

Almanac

Astronomy

Dec. 05, 2016 Rise Set
Actual Time
Civil Twilight
Nautical Twilight
Astronomical Twilight
Moon
Length of Visible Light
Length of Day
Tomorrow will be .
, % of the Moon is Illuminated

Today's Extremes

State Highs State Lows

Community

WunderPhotos

Upload Photos

1,955,787 photos uploaded!

WunderBlog® & News

Nearby

Air Quality

  Air Quality AQ Index Pollutant
Not available.

Snow Depth

Station Depth Elevation

Earthquake Activity

City Distance Mag. Time & Date
Minimum magnitude displayed is 2.5.

Coastal Water Temperatures

Place Temperature

Stations

Nearby Weather Stations

Station Location Temp. Windchill Dew Point Humidity Wind Precip. Elev Updated Type
                   

Watches & Warnings

Dense Fog Advisory
Issued: 8:53 AM CST Dec. 5, 2016 – National Weather Service

... Dense fog advisory in effect until noon CST today...

The National Weather Service in Milwaukee/Sullivan has issued a
dense fog advisory... which is in effect until noon CST today.

* Timing... through noon.

* Visibility... a 1/4 mile or less.

* Impacts... fog may cause slippery spots on untreated roads.

Precautionary/preparedness actions...

A dense fog advisory means visibilities will frequently be
reduced to less than one quarter mile. If driving... slow down...
use your headlights... and leave plenty of distance ahead of you.



Marquardt